Time;durP1;ratioP1;P1;durP2;ratioP2;P2;SDS_P1;SDS_P2;PMS_P1;PMS_P2;Temp;Humidity;BMP_temperature;BMP_pressure;BME280_temperature;BME280_humidity;BME280_pressure;Samples;Min_cycle;Max_cycle;Signal;HPM_P1;HPM_P2
2022/01/17 00:02:20;;;;;;;;;;;5.40;99.90;;;;;;5004900;28;19926;-78
2022/01/17 00:04:47;;;;;;;;;;;5.40;99.90;;;;;;4998950;28;20392;-79
2022/01/17 00:07:13;;;;;;;;;;;5.40;99.90;;;;;;4994402;28;19932;-79
2022/01/17 00:09:40;;;;;;;;;;;5.40;99.90;;;;;;4993693;28;20003;-79
2022/01/17 00:12:07;;;;;;;;;;;5.40;99.90;;;;;;4993438;28;19973;-79
2022/01/17 00:14:39;;;;;;;;;;;5.40;99.90;;;;;;4993986;28;19932;-79
2022/01/17 00:17:22;;;;;;;;;;;5.50;99.90;;;;;;4996645;28;19933;-79
2022/01/17 00:19:53;;;;;;;;;;;5.50;99.90;;;;;;4996897;28;20393;-79
2022/01/17 00:22:20;;;;;;;;;;;5.50;99.90;;;;;;5001522;28;19957;-78
2022/01/17 00:24:48;;;;;;;;;;;5.50;99.90;;;;;;4999562;28;20316;-80
2022/01/17 00:27:14;;;;;;;;;;;5.50;99.90;;;;;;4996408;28;19976;-79
2022/01/17 00:29:41;;;;;;;;;;;5.60;99.90;;;;;;4996171;28;20388;-78
2022/01/17 00:32:09;;;;;;;;;;;5.60;99.90;;;;;;4996221;28;19961;-79
2022/01/17 00:34:36;;;;;;;;;;;5.60;99.90;;;;;;4995913;28;19979;-78
2022/01/17 00:37:02;;;;;;;;;;;5.60;99.90;;;;;;4997816;28;19926;-78
2022/01/17 00:39:29;;;;;;;;;;;5.60;99.90;;;;;;4998719;28;19933;-79
2022/01/17 00:41:55;;;;;;;;;;;5.60;99.90;;;;;;4996937;28;19952;-79
2022/01/17 00:44:23;;;;;;;;;;;5.60;99.90;;;;;;4997280;28;19961;-79
2022/01/17 00:46:50;;;;;;;;;;;5.60;99.90;;;;;;4995744;28;20388;-78
2022/01/17 00:49:19;;;;;;;;;;;5.70;99.90;;;;;;4996674;28;19976;-78
2022/01/17 00:51:45;;;;;;;;;;;5.70;99.90;;;;;;4995929;28;19932;-80
2022/01/17 00:54:12;;;;;;;;;;;5.70;99.90;;;;;;4997025;28;19964;-79
2022/01/17 00:56:38;;;;;;;;;;;5.70;99.90;;;;;;4997547;28;19926;-79
2022/01/17 00:59:05;;;;;;;;;;;5.70;99.90;;;;;;4996997;28;19960;-79
2022/01/17 01:01:31;;;;;;;;;;;5.70;99.90;;;;;;5000420;28;19965;-78
2022/01/17 01:03:58;;;;;;;;;;;5.70;99.90;;;;;;5000059;28;19925;-78
2022/01/17 01:06:26;;;;;;;;;;;5.70;99.90;;;;;;5005147;28;19933;-78
2022/01/17 01:08:52;;;;;;;;;;;5.80;99.90;;;;;;5007747;28;19925;-77
2022/01/17 01:11:19;;;;;;;;;;;5.80;99.90;;;;;;5004516;28;19925;-79
2022/01/17 01:13:45;;;;;;;;;;;5.80;99.90;;;;;;4997073;28;19925;-79
2022/01/17 01:16:29;;;;;;;;;;;5.80;99.90;;;;;;4997171;28;20020;-79
2022/01/17 01:21:59;;;;;;;;;;;5.80;99.90;;;;;;5000479;28;19922;-80
2022/01/17 01:29:58;;;;;;;;;;;6.00;99.90;;;;;;4997792;28;19929;-79
2022/01/17 01:32:30;;;;;;;;;;;6.00;99.90;;;;;;4996930;28;19971;-79
2022/01/17 01:34:59;;;;;;;;;;;6.00;99.90;;;;;;4996565;28;19933;-79
2022/01/17 01:37:27;;;;;;;;;;;5.90;99.90;;;;;;4995380;28;20387;-79
2022/01/17 01:39:54;;;;;;;;;;;5.90;99.90;;;;;;4995544;28;19933;-80
2022/01/17 01:42:22;;;;;;;;;;;5.90;99.90;;;;;;4996380;28;19930;-80
2022/01/17 01:44:51;;;;;;;;;;;5.90;99.90;;;;;;4998483;28;20384;-80
2022/01/17 01:47:20;;;;;;;;;;;5.90;99.90;;;;;;5002518;28;19926;-79
2022/01/17 01:49:47;;;;;;;;;;;6.00;99.90;;;;;;4999418;28;19937;-79
2022/01/17 01:52:13;;;;;;;;;;;6.00;99.90;;;;;;4998688;28;19926;-79
2022/01/17 01:54:41;;;;;;;;;;;6.00;99.90;;;;;;4998555;28;19926;-80
2022/01/17 01:57:07;;;;;;;;;;;6.00;99.90;;;;;;4995967;28;19961;-79
2022/01/17 01:59:34;;;;;;;;;;;6.00;99.90;;;;;;4995302;28;19933;-78
2022/01/17 02:02:00;;;;;;;;;;;6.00;99.90;;;;;;4994888;28;19969;-78
2022/01/17 02:04:27;;;;;;;;;;;6.10;99.90;;;;;;4997883;28;19962;-79
2022/01/17 02:06:53;;;;;;;;;;;6.10;99.90;;;;;;4999717;28;19933;-79
2022/01/17 02:09:23;;;;;;;;;;;6.10;99.90;;;;;;4996900;28;19925;-79
2022/01/17 02:11:51;;;;;;;;;;;6.10;99.90;;;;;;4994871;28;19925;-79
2022/01/17 02:14:18;;;;;;;;;;;6.10;99.90;;;;;;5004386;28;19961;-78
2022/01/17 02:16:45;;;;;;;;;;;6.00;99.90;;;;;;5010098;28;19926;-78
2022/01/17 02:19:12;;;;;;;;;;;5.90;99.90;;;;;;5009440;28;19930;-80
2022/01/17 02:21:46;;;;;;;;;;;5.80;99.90;;;;;;4995712;28;19933;-80
2022/01/17 02:24:14;;;;;;;;;;;5.70;99.90;;;;;;4995696;28;19926;-79
2022/01/17 02:26:40;;;;;;;;;;;5.50;99.90;;;;;;4994681;28;20420;-80
2022/01/17 02:29:07;;;;;;;;;;;5.40;99.90;;;;;;4994608;28;19972;-79
2022/01/17 02:31:33;;;;;;;;;;;5.40;99.90;;;;;;4999937;28;19933;-78
2022/01/17 02:34:01;;;;;;;;;;;5.10;99.90;;;;;;5004908;28;19926;-79
2022/01/17 02:36:28;;;;;;;;;;;5.30;99.90;;;;;;4999221;28;19990;-80
2022/01/17 02:38:55;;;;;;;;;;;5.40;99.90;;;;;;4994544;28;19926;-79
2022/01/17 02:41:22;;;;;;;;;;;5.40;99.90;;;;;;4996028;28;19975;-80
2022/01/17 02:43:49;;;;;;;;;;;5.30;99.90;;;;;;5005589;28;19925;-78
2022/01/17 02:48:57;;;;;;;;;;;5.40;99.90;;;;;;5005195;28;19922;-78
2022/01/17 02:51:23;;;;;;;;;;;5.50;99.90;;;;;;5009045;28;19914;-78
2022/01/17 02:53:50;;;;;;;;;;;5.60;99.90;;;;;;5008540;28;19925;-78
2022/01/17 02:56:18;;;;;;;;;;;5.70;99.90;;;;;;5003678;28;19926;-79
2022/01/17 02:58:45;;;;;;;;;;;5.70;99.90;;;;;;4995381;28;20479;-79
2022/01/17 03:01:13;;;;;;;;;;;5.60;99.90;;;;;;4995751;28;20354;-80
2022/01/17 03:03:40;;;;;;;;;;;5.70;99.90;;;;;;4996554;28;20000;-80
2022/01/17 03:06:07;;;;;;;;;;;5.70;99.90;;;;;;4996665;28;19926;-80
2022/01/17 03:08:34;;;;;;;;;;;5.70;99.90;;;;;;4996530;28;20012;-78
2022/01/17 03:11:05;;;;;;;;;;;5.70;99.90;;;;;;4994979;28;19965;-78
2022/01/17 03:13:34;;;;;;;;;;;5.70;99.90;;;;;;4994908;28;19932;-78
2022/01/17 03:16:02;;;;;;;;;;;5.70;99.90;;;;;;4995014;28;19955;-79
2022/01/17 03:18:29;;;;;;;;;;;5.80;99.90;;;;;;4995564;28;20018;-78
2022/01/17 03:20:56;;;;;;;;;;;5.80;99.90;;;;;;4995305;28;19973;-79
2022/01/17 03:23:22;;;;;;;;;;;5.80;99.90;;;;;;4997933;28;20024;-77
2022/01/17 03:25:49;;;;;;;;;;;5.80;99.90;;;;;;4997857;28;19966;-79
2022/01/17 03:28:15;;;;;;;;;;;5.80;99.90;;;;;;5000871;28;19926;-79
2022/01/17 03:30:43;;;;;;;;;;;5.80;99.90;;;;;;4997383;28;20049;-79
2022/01/17 03:33:11;;;;;;;;;;;5.80;99.90;;;;;;4995648;28;20389;-78
2022/01/17 03:35:38;;;;;;;;;;;5.80;99.90;;;;;;4997826;28;19969;-78
2022/01/17 03:38:05;;;;;;;;;;;5.70;99.90;;;;;;4994984;28;19956;-79
2022/01/17 03:40:31;;;;;;;;;;;5.70;99.90;;;;;;4994419;28;19988;-79
2022/01/17 03:42:58;;;;;;;;;;;5.70;99.90;;;;;;4994545;28;19926;-79
2022/01/17 03:45:24;;;;;;;;;;;5.70;99.90;;;;;;4994412;28;19965;-78
2022/01/17 03:47:52;;;;;;;;;;;5.70;99.90;;;;;;4994430;28;20016;-79
2022/01/17 03:50:21;;;;;;;;;;;5.70;99.90;;;;;;4995319;28;19967;-79
2022/01/17 03:52:48;;;;;;;;;;;5.70;99.90;;;;;;4997448;28;19983;-78
2022/01/17 03:55:15;;;;;;;;;;;5.70;99.90;;;;;;4997084;28;19926;-80
2022/01/17 03:57:43;;;;;;;;;;;5.70;99.90;;;;;;4998256;28;19969;-78
2022/01/17 04:00:12;;;;;;;;;;;5.70;99.90;;;;;;4997580;28;19957;-80
2022/01/17 04:02:39;;;;;;;;;;;5.70;99.90;;;;;;5003404;28;19961;-77
2022/01/17 04:05:07;;;;;;;;;;;5.80;99.90;;;;;;5011089;28;19933;-77
2022/01/17 04:07:33;;;;;;;;;;;5.80;99.90;;;;;;5012397;28;19926;-77
2022/01/17 04:10:00;;;;;;;;;;;5.80;99.90;;;;;;5003148;28;19973;-80
2022/01/17 04:12:26;;;;;;;;;;;5.80;99.90;;;;;;4998536;28;19973;-79
2022/01/17 04:14:55;;;;;;;;;;;5.80;99.90;;;;;;4997306;28;19930;-78
2022/01/17 04:17:23;;;;;;;;;;;5.80;99.90;;;;;;4997285;28;20373;-79
2022/01/17 04:19:52;;;;;;;;;;;5.80;99.90;;;;;;4997827;28;19937;-79
2022/01/17 04:22:20;;;;;;;;;;;5.80;99.90;;;;;;4998886;28;19926;-79
2022/01/17 04:24:47;;;;;;;;;;;5.80;99.90;;;;;;4998703;28;19983;-78
2022/01/17 04:27:13;;;;;;;;;;;5.80;99.90;;;;;;5008514;28;19929;-78
2022/01/17 04:29:40;;;;;;;;;;;5.80;99.90;;;;;;5006965;28;19932;-78
2022/01/17 04:32:07;;;;;;;;;;;5.90;99.90;;;;;;4998397;28;19965;-79
2022/01/17 04:34:34;;;;;;;;;;;5.90;99.90;;;;;;4997350;28;19990;-79
2022/01/17 04:37:02;;;;;;;;;;;5.90;99.90;;;;;;4997139;28;19926;-79
2022/01/17 04:39:29;;;;;;;;;;;5.80;99.90;;;;;;4997349;28;19925;-79
2022/01/17 04:41:57;;;;;;;;;;;5.80;99.90;;;;;;5001242;28;19929;-79
2022/01/17 04:47:07;;;;;;;;;;;5.80;99.90;;;;;;4998574;28;19928;-80
2022/01/17 04:49:34;;;;;;;;;;;5.80;99.90;;;;;;4996906;28;20048;-79
2022/01/17 04:52:00;;;;;;;;;;;5.80;99.90;;;;;;4997810;28;19985;-80
2022/01/17 04:54:39;;;;;;;;;;;5.90;99.90;;;;;;4998905;28;19969;-80
2022/01/17 04:57:08;;;;;;;;;;;5.90;99.90;;;;;;4998150;28;19987;-78
2022/01/17 04:59:35;;;;;;;;;;;5.90;99.90;;;;;;4996267;28;19953;-79
2022/01/17 05:02:01;;;;;;;;;;;5.90;99.90;;;;;;4996803;28;20036;-79
2022/01/17 05:04:30;;;;;;;;;;;5.90;99.90;;;;;;4997185;28;19965;-79
2022/01/17 05:06:56;;;;;;;;;;;5.90;99.90;;;;;;4996943;28;20377;-78
2022/01/17 05:09:23;;;;;;;;;;;5.80;99.90;;;;;;4997189;28;19961;-79
2022/01/17 05:11:49;;;;;;;;;;;5.80;99.90;;;;;;4999015;28;19948;-79
2022/01/17 05:14:17;;;;;;;;;;;5.80;99.90;;;;;;5000421;28;19933;-80
2022/01/17 05:16:48;;;;;;;;;;;5.90;99.90;;;;;;5000824;28;20342;-79
2022/01/17 05:21:59;;;;;;;;;;;5.90;99.90;;;;;;4997978;28;19971;-79
2022/01/17 05:24:25;;;;;;;;;;;5.90;99.90;;;;;;5001278;28;19947;-79
2022/01/17 05:26:51;;;;;;;;;;;5.90;99.90;;;;;;4995335;28;19968;-79
2022/01/17 05:29:21;;;;;;;;;;;5.90;99.90;;;;;;4995358;28;20012;-79
2022/01/17 05:31:48;;;;;;;;;;;6.00;99.90;;;;;;4996213;28;19925;-79
2022/01/17 05:34:14;;;;;;;;;;;6.00;99.90;;;;;;4995851;28;19962;-79
2022/01/17 05:36:41;;;;;;;;;;;5.90;99.90;;;;;;4995933;28;19965;-78
2022/01/17 05:39:07;;;;;;;;;;;6.00;99.90;;;;;;4996175;28;19926;-79
2022/01/17 05:41:34;;;;;;;;;;;6.00;99.90;;;;;;4995447;28;19969;-79
2022/01/17 05:44:00;;;;;;;;;;;6.00;99.90;;;;;;4994655;28;19989;-78
2022/01/17 05:46:28;;;;;;;;;;;6.00;99.90;;;;;;4995164;28;19965;-79
2022/01/17 05:48:54;;;;;;;;;;;6.00;99.90;;;;;;4994834;28;19969;-78
2022/01/17 05:51:21;;;;;;;;;;;6.00;99.90;;;;;;4994859;28;19933;-79
2022/01/17 05:53:47;;;;;;;;;;;6.00;99.90;;;;;;4995891;28;20382;-80
2022/01/17 05:56:14;;;;;;;;;;;6.00;99.90;;;;;;4995431;28;19961;-80
2022/01/17 05:58:40;;;;;;;;;;;6.00;99.90;;;;;;4996407;28;19948;-79
2022/01/17 06:01:08;;;;;;;;;;;6.00;99.90;;;;;;5004191;28;19986;-79
2022/01/17 06:03:36;;;;;;;;;;;6.00;99.90;;;;;;5005890;28;19926;-79
2022/01/17 06:06:03;;;;;;;;;;;6.00;99.90;;;;;;5005245;28;19975;-79
2022/01/17 06:08:30;;;;;;;;;;;6.00;99.90;;;;;;5003466;28;19941;-79
2022/01/17 06:10:56;;;;;;;;;;;6.00;99.90;;;;;;5004135;28;19957;-79
2022/01/17 06:13:22;;;;;;;;;;;6.00;99.90;;;;;;5002800;28;19952;-78
2022/01/17 06:15:49;;;;;;;;;;;6.00;99.90;;;;;;5009074;28;19926;-79
2022/01/17 06:18:15;;;;;;;;;;;6.00;99.90;;;;;;5009776;28;19937;-80
2022/01/17 06:20:43;;;;;;;;;;;6.00;99.90;;;;;;5005583;28;19926;-79
2022/01/17 06:23:10;;;;;;;;;;;5.90;99.90;;;;;;5005621;28;19926;-79
2022/01/17 06:25:36;;;;;;;;;;;5.90;99.90;;;;;;5001244;28;19926;-79
2022/01/17 06:28:03;;;;;;;;;;;5.90;99.90;;;;;;5001338;28;19940;-79
2022/01/17 06:30:29;;;;;;;;;;;5.80;99.90;;;;;;5000007;28;20392;-79
2022/01/17 06:32:56;;;;;;;;;;;5.80;99.90;;;;;;5005780;28;19933;-79
2022/01/17 06:35:23;;;;;;;;;;;5.70;99.90;;;;;;5006821;28;20005;-79
2022/01/17 06:37:51;;;;;;;;;;;5.70;99.90;;;;;;5006565;28;19925;-80
2022/01/17 06:40:19;;;;;;;;;;;5.60;99.90;;;;;;4999925;28;19933;-80
2022/01/17 06:42:45;;;;;;;;;;;5.60;99.90;;;;;;4997401;28;19973;-79
2022/01/17 06:45:13;;;;;;;;;;;5.60;99.90;;;;;;5000265;28;19926;-79
2022/01/17 06:47:40;;;;;;;;;;;5.50;99.90;;;;;;5008284;28;19985;-79
2022/01/17 06:50:08;;;;;;;;;;;5.50;99.90;;;;;;4998696;28;19930;-79
2022/01/17 06:52:35;;;;;;;;;;;5.50;99.90;;;;;;4995572;28;20024;-80
2022/01/17 06:55:03;;;;;;;;;;;5.50;99.90;;;;;;4996269;28;19961;-79
2022/01/17 06:57:29;;;;;;;;;;;5.40;99.90;;;;;;4995708;28;19976;-79
2022/01/17 06:59:56;;;;;;;;;;;5.40;99.90;;;;;;4995278;28;20028;-79
2022/01/17 07:02:22;;;;;;;;;;;5.40;99.90;;;;;;4995777;28;19925;-79
2022/01/17 07:04:49;;;;;;;;;;;5.40;99.90;;;;;;4996054;28;19978;-80
2022/01/17 07:07:17;;;;;;;;;;;5.40;99.90;;;;;;4995349;28;19952;-78
2022/01/17 07:09:44;;;;;;;;;;;5.40;99.90;;;;;;4994927;28;20348;-79
2022/01/17 07:12:12;;;;;;;;;;;5.40;99.90;;;;;;4994734;28;19925;-79
2022/01/17 07:14:41;;;;;;;;;;;5.50;99.90;;;;;;4995091;28;20359;-80
2022/01/17 07:17:08;;;;;;;;;;;5.50;99.90;;;;;;4996580;28;19945;-80
2022/01/17 07:19:34;;;;;;;;;;;5.50;99.90;;;;;;4996779;28;19961;-80
2022/01/17 07:22:01;;;;;;;;;;;5.50;99.90;;;;;;5000362;28;19934;-80
2022/01/17 07:24:27;;;;;;;;;;;5.50;99.90;;;;;;4995584;28;19961;-78
2022/01/17 07:26:54;;;;;;;;;;;5.50;99.90;;;;;;4994605;28;19930;-79
2022/01/17 07:29:24;;;;;;;;;;;5.50;99.90;;;;;;5000560;28;19926;-79
2022/01/17 07:31:50;;;;;;;;;;;5.60;99.90;;;;;;5004444;28;19925;-78
2022/01/17 07:34:17;;;;;;;;;;;5.60;99.90;;;;;;4999979;28;19956;-79
2022/01/17 07:36:43;;;;;;;;;;;5.60;99.90;;;;;;4994944;28;19973;-80
2022/01/17 07:39:10;;;;;;;;;;;5.60;99.90;;;;;;4996445;28;19954;-80
2022/01/17 07:41:37;;;;;;;;;;;5.60;99.90;;;;;;4997135;28;19969;-80
2022/01/17 07:44:05;;;;;;;;;;;5.70;99.90;;;;;;4996079;28;19975;-79
2022/01/17 07:46:35;;;;;;;;;;;5.70;99.90;;;;;;4996548;28;19937;-78
2022/01/17 07:49:10;;;;;;;;;;;5.70;99.90;;;;;;5002662;28;19926;-77
2022/01/17 07:51:39;;;;;;;;;;;5.70;99.90;;;;;;5004344;28;19936;-81
2022/01/17 07:54:07;;;;;;;;;;;5.70;99.90;;;;;;5004079;28;19926;-79
2022/01/17 07:56:34;;;;;;;;;;;5.50;99.90;;;;;;4994712;28;19926;-78
2022/01/17 07:59:00;;;;;;;;;;;5.70;99.90;;;;;;4994527;28;19932;-80
2022/01/17 08:01:27;;;;;;;;;;;5.70;99.90;;;;;;4995201;28;19975;-80
2022/01/17 08:03:55;;;;;;;;;;;5.70;99.90;;;;;;4996019;28;19925;-80
2022/01/17 08:06:21;;;;;;;;;;;5.70;99.90;;;;;;4995768;28;19979;-80
2022/01/17 08:08:48;;;;;;;;;;;5.70;99.90;;;;;;4994339;28;19968;-80
2022/01/17 08:11:14;;;;;;;;;;;5.70;99.90;;;;;;4996657;28;19930;-80
2022/01/17 08:14:16;;;;;;;;;;;5.70;99.90;;;;;;4996041;28;19930;-80
2022/01/17 08:16:43;;;;;;;;;;;5.70;99.90;;;;;;4993671;28;19925;-80
2022/01/17 08:19:13;;;;;;;;;;;5.80;99.90;;;;;;4994473;28;19926;-79
2022/01/17 08:21:39;;;;;;;;;;;5.70;99.90;;;;;;4993672;28;19933;-80
2022/01/17 08:24:06;;;;;;;;;;;5.70;99.90;;;;;;4994230;28;19949;-79
2022/01/17 08:26:33;;;;;;;;;;;5.70;99.90;;;;;;4993469;28;19973;-79
2022/01/17 08:28:59;;;;;;;;;;;5.70;99.90;;;;;;4993933;28;19926;-79
2022/01/17 08:31:25;;;;;;;;;;;5.70;99.90;;;;;;4994738;28;19969;-80
2022/01/17 08:33:52;;;;;;;;;;;5.70;99.90;;;;;;4999574;28;19934;-77
2022/01/17 08:36:20;;;;;;;;;;;5.80;99.90;;;;;;5009079;28;19953;-78
2022/01/17 08:38:47;;;;;;;;;;;5.80;99.90;;;;;;5011162;28;19936;-78
2022/01/17 08:41:13;;;;;;;;;;;5.80;99.90;;;;;;5006583;28;19937;-80
2022/01/17 08:43:40;;;;;;;;;;;5.80;99.90;;;;;;5001539;28;19926;-80
2022/01/17 08:46:06;;;;;;;;;;;5.80;99.90;;;;;;4997294;28;19925;-79
2022/01/17 08:48:33;;;;;;;;;;;5.90;99.90;;;;;;5000712;28;19957;-78
2022/01/17 08:50:59;;;;;;;;;;;5.90;99.90;;;;;;5004177;28;19948;-79
2022/01/17 08:53:28;;;;;;;;;;;5.80;99.90;;;;;;5004040;28;19925;-79
2022/01/17 08:55:54;;;;;;;;;;;5.80;99.90;;;;;;5005881;28;20028;-77
2022/01/17 08:58:21;;;;;;;;;;;5.80;99.90;;;;;;5005487;28;19933;-77
2022/01/17 09:00:49;;;;;;;;;;;5.90;99.90;;;;;;5001270;28;19926;-79
2022/01/17 09:03:16;;;;;;;;;;;5.90;99.90;;;;;;4996104;28;19948;-79
2022/01/17 09:05:42;;;;;;;;;;;6.00;99.90;;;;;;4996349;28;19926;-78
2022/01/17 09:08:09;;;;;;;;;;;6.00;99.90;;;;;;4997147;28;19926;-81
2022/01/17 09:10:37;;;;;;;;;;;6.00;99.90;;;;;;4996718;28;20399;-79
2022/01/17 09:13:04;;;;;;;;;;;5.90;99.90;;;;;;4996240;28;19995;-78
2022/01/17 09:15:30;;;;;;;;;;;6.00;99.90;;;;;;4996236;28;19980;-79
2022/01/17 09:17:57;;;;;;;;;;;5.90;99.90;;;;;;4997339;28;19982;-79
2022/01/17 09:20:23;;;;;;;;;;;5.90;99.90;;;;;;4996608;28;20009;-79
2022/01/17 09:22:50;;;;;;;;;;;5.90;99.90;;;;;;4997774;28;19925;-79
2022/01/17 09:25:16;;;;;;;;;;;5.90;99.90;;;;;;5003495;28;19970;-79
2022/01/17 09:27:44;;;;;;;;;;;5.90;99.90;;;;;;5008379;28;19937;-79
2022/01/17 09:30:12;;;;;;;;;;;5.90;99.90;;;;;;5006041;28;19926;-80
2022/01/17 09:32:38;;;;;;;;;;;5.80;99.90;;;;;;4996395;28;19925;-78
2022/01/17 09:35:06;;;;;;;;;;;5.90;99.90;;;;;;4996597;28;19965;-78
2022/01/17 09:37:33;;;;;;;;;;;5.80;99.90;;;;;;4995980;28;20450;-79
2022/01/17 09:39:59;;;;;;;;;;;5.80;99.90;;;;;;4996396;28;19949;-79
2022/01/17 09:42:26;;;;;;;;;;;5.80;99.90;;;;;;4996834;28;19961;-80
2022/01/17 09:44:53;;;;;;;;;;;5.80;99.90;;;;;;4997443;28;19961;-79
2022/01/17 09:47:20;;;;;;;;;;;5.80;99.90;;;;;;4997033;28;20372;-80
2022/01/17 09:49:53;;;;;;;;;;;5.80;99.90;;;;;;4996306;28;19926;-79
2022/01/17 09:52:34;;;;;;;;;;;5.80;99.90;;;;;;4997158;28;19940;-79
2022/01/17 09:55:03;;;;;;;;;;;5.80;99.90;;;;;;4997768;28;19926;-80
2022/01/17 09:57:31;;;;;;;;;;;5.80;99.90;;;;;;4997719;28;19972;-80
2022/01/17 09:59:59;;;;;;;;;;;5.80;99.90;;;;;;4995879;28;20411;-80
2022/01/17 10:02:26;;;;;;;;;;;5.30;99.90;;;;;;4995698;28;20335;-80
2022/01/17 10:05:06;;;;;;;;;;;5.00;99.90;;;;;;4996281;28;19971;-84
2022/01/17 10:07:51;;;;;;;;;;;4.70;99.90;;;;;;4996424;28;19956;-81
2022/01/17 10:10:32;;;;;;;;;;;5.00;99.90;;;;;;4999692;28;20381;-81
2022/01/17 10:13:04;;;;;;;;;;;4.70;99.90;;;;;;5005583;28;19925;-79
2022/01/17 10:15:43;;;;;;;;;;;4.80;99.90;;;;;;4998757;28;20312;-79
2022/01/17 10:18:22;;;;;;;;;;;4.00;99.90;;;;;;4995652;28;19980;-80
2022/01/17 10:20:54;;;;;;;;;;;5.00;99.90;;;;;;4995099;28;19980;-79
2022/01/17 10:23:39;;;;;;;;;;;5.00;99.90;;;;;;4995252;28;19925;-80
2022/01/17 10:26:11;;;;;;;;;;;5.10;99.90;;;;;;4995031;28;19929;-79
2022/01/17 10:36:52;;;;;;;;;;;5.20;99.90;;;;;;5009865;28;19987;-79
2022/01/17 10:39:19;;;;;;;;;;;5.40;99.90;;;;;;5010712;28;19951;-79
2022/01/17 10:41:45;;;;;;;;;;;5.40;99.90;;;;;;5008161;28;19940;-78
2022/01/17 10:44:12;;;;;;;;;;;5.50;99.90;;;;;;4999605;28;19977;-81
2022/01/17 10:46:40;;;;;;;;;;;5.50;99.90;;;;;;4996179;28;20440;-80
2022/01/17 10:49:08;;;;;;;;;;;5.60;99.90;;;;;;4995860;28;21175;-80
2022/01/17 10:51:35;;;;;;;;;;;5.60;99.90;;;;;;4994968;28;19934;-79
2022/01/17 10:54:11;;;;;;;;;;;5.60;99.90;;;;;;4995022;28;19933;-80
2022/01/17 10:56:48;;;;;;;;;;;5.70;99.90;;;;;;4994747;28;19926;-78
2022/01/17 10:59:25;;;;;;;;;;;5.70;99.90;;;;;;4994623;28;19961;-79
2022/01/17 11:01:54;;;;;;;;;;;5.80;99.90;;;;;;4995453;28;19960;-79
2022/01/17 11:04:33;;;;;;;;;;;5.80;99.90;;;;;;4994896;28;19926;-79
2022/01/17 11:07:03;;;;;;;;;;;5.80;99.90;;;;;;4994050;28;19926;-79
2022/01/17 11:09:37;;;;;;;;;;;5.80;99.90;;;;;;4997123;28;19952;-78
2022/01/17 11:12:08;;;;;;;;;;;5.70;99.90;;;;;;5004390;28;19926;-77
2022/01/17 11:14:36;;;;;;;;;;;5.60;99.90;;;;;;5003765;28;19926;-77
2022/01/17 11:17:10;;;;;;;;;;;5.40;99.90;;;;;;5004743;28;19948;-77
2022/01/17 11:22:21;;;;;;;;;;;4.90;99.90;;;;;;5001497;28;19971;-77
2022/01/17 11:24:47;;;;;;;;;;;4.40;99.90;;;;;;5001384;28;19952;-78
2022/01/17 11:27:15;;;;;;;;;;;4.10;99.90;;;;;;4998275;28;19988;-79
2022/01/17 11:29:41;;;;;;;;;;;3.80;99.90;;;;;;4999386;28;20365;-78
2022/01/17 11:32:08;;;;;;;;;;;3.60;99.90;;;;;;4997490;28;19926;-77
2022/01/17 11:34:35;;;;;;;;;;;3.50;99.90;;;;;;4996317;28;20372;-79
2022/01/17 11:37:02;;;;;;;;;;;3.40;99.90;;;;;;4994023;28;20393;-79
2022/01/17 11:39:29;;;;;;;;;;;3.30;99.90;;;;;;4994213;28;20453;-79
2022/01/17 11:41:55;;;;;;;;;;;3.20;99.90;;;;;;4994495;28;19930;-78
2022/01/17 11:44:32;;;;;;;;;;;3.00;99.90;;;;;;4995278;28;19926;-80
2022/01/17 11:46:59;;;;;;;;;;;3.00;99.90;;;;;;4994566;28;19926;-79
2022/01/17 11:49:26;;;;;;;;;;;3.00;99.90;;;;;;4998454;28;19929;-80
2022/01/17 11:51:54;;;;;;;;;;;3.00;99.90;;;;;;5002041;28;19926;-77
2022/01/17 11:54:22;;;;;;;;;;;3.00;99.90;;;;;;4998923;28;20322;-79
2022/01/17 11:56:51;;;;;;;;;;;3.00;99.90;;;;;;4995708;28;19943;-80
2022/01/17 11:59:34;;;;;;;;;;;3.00;99.90;;;;;;4994548;28;19927;-80
2022/01/17 12:02:17;;;;;;;;;;;3.00;99.90;;;;;;4993448;28;19933;-78
2022/01/17 12:05:11;;;;;;;;;;;3.10;99.90;;;;;;4994398;28;19925;-80
2022/01/17 12:07:40;;;;;;;;;;;3.20;99.90;;;;;;4993682;28;19969;-80
2022/01/17 12:10:07;;;;;;;;;;;3.20;99.90;;;;;;4993644;28;19952;-79
2022/01/17 12:12:34;;;;;;;;;;;3.20;99.90;;;;;;4995970;28;20020;-79
2022/01/17 12:15:05;;;;;;;;;;;3.30;99.90;;;;;;5003676;28;19926;-77
2022/01/17 12:17:32;;;;;;;;;;;3.40;99.90;;;;;;4998276;28;19926;-78
2022/01/17 12:20:19;;;;;;;;;;;3.50;99.90;;;;;;4998015;28;20396;-79
2022/01/17 12:22:56;;;;;;;;;;;3.40;99.90;;;;;;4996928;28;19971;-78
2022/01/17 12:25:34;;;;;;;;;;;3.50;99.90;;;;;;4996736;28;19965;-78
2022/01/17 12:28:19;;;;;;;;;;;3.50;99.90;;;;;;4997146;28;19930;-80
2022/01/17 12:30:47;;;;;;;;;;;3.70;99.90;;;;;;4996770;28;19934;-80
2022/01/17 12:33:14;;;;;;;;;;;3.70;99.90;;;;;;4997301;28;19926;-80
2022/01/17 12:35:45;;;;;;;;;;;3.70;99.90;;;;;;4997834;28;19980;-82
2022/01/17 12:38:29;;;;;;;;;;;3.70;99.90;;;;;;4996310;28;20306;-79
2022/01/17 12:40:55;;;;;;;;;;;3.80;99.90;;;;;;4996308;28;20021;-79
2022/01/17 12:43:27;;;;;;;;;;;3.80;99.90;;;;;;4996807;28;19926;-78
2022/01/17 12:45:59;;;;;;;;;;;3.90;99.90;;;;;;4997479;28;19926;-79
2022/01/17 12:48:27;;;;;;;;;;;3.90;99.90;;;;;;5002218;28;19940;-78
2022/01/17 12:50:54;;;;;;;;;;;3.90;99.90;;;;;;5005153;28;19926;-78
2022/01/17 12:53:24;;;;;;;;;;;4.00;99.80;;;;;;5005725;28;20042;-78
2022/01/17 12:55:52;;;;;;;;;;;4.10;99.90;;;;;;5006217;28;19937;-79
2022/01/17 12:58:19;;;;;;;;;;;4.10;99.90;;;;;;5001078;28;20346;-80
2022/01/17 13:00:47;;;;;;;;;;;4.00;78.70;;;;;;4998764;28;19930;-79
2022/01/17 13:03:17;;;;;;;;;;;4.20;95.20;;;;;;4998423;28;19964;-79
2022/01/17 13:05:45;;;;;;;;;;;3.90;1.00;;;;;;4999908;28;19934;-78
2022/01/17 13:08:11;;;;;;;;;;;4.20;99.80;;;;;;4998817;28;20311;-78
2022/01/17 13:10:39;;;;;;;;;;;4.30;95.10;;;;;;5000368;28;19938;-77
2022/01/17 13:13:06;;;;;;;;;;;4.30;1.00;;;;;;5003786;28;19929;-77
2022/01/17 13:15:32;;;;;;;;;;;4.30;1.00;;;;;;5003741;28;19926;-79
2022/01/17 13:17:59;;;;;;;;;;;4.40;1.00;;;;;;4998631;28;19980;-79
2022/01/17 13:20:26;;;;;;;;;;;4.40;1.00;;;;;;4996863;28;19930;-79
2022/01/17 13:23:01;;;;;;;;;;;4.40;1.00;;;;;;4996523;28;19929;-78
2022/01/17 13:25:28;;;;;;;;;;;4.30;47.60;;;;;;4998846;28;19926;-81
2022/01/17 13:27:58;;;;;;;;;;;4.30;99.90;;;;;;4998020;28;19926;-82
2022/01/17 13:30:25;;;;;;;;;;;4.30;1.00;;;;;;4999550;28;20330;-79
2022/01/17 13:32:51;;;;;;;;;;;4.60;1.00;;;;;;4996997;28;19926;-79
2022/01/17 13:35:22;;;;;;;;;;;3.50;1.00;;;;;;4997634;28;19933;-79
2022/01/17 13:37:49;;;;;;;;;;;4.20;1.00;;;;;;4997808;28;20365;-79
2022/01/17 13:40:17;;;;;;;;;;;4.10;99.90;;;;;;4996898;28;20364;-79
2022/01/17 13:42:47;;;;;;;;;;;4.10;99.90;;;;;;4996130;28;19980;-78
2022/01/17 13:45:15;;;;;;;;;;;4.10;1.00;;;;;;4995620;28;20372;-79
2022/01/17 13:47:44;;;;;;;;;;;4.20;61.40;;;;;;4995056;28;19968;-78
2022/01/17 13:50:11;;;;;;;;;;;4.10;1.00;;;;;;4994311;28;20024;-78
2022/01/17 13:52:37;;;;;;;;;;;4.10;99.90;;;;;;5001895;28;19972;-78
2022/01/17 13:55:24;;;;;;;;;;;4.10;99.90;;;;;;5008156;28;20450;-77
2022/01/17 13:57:56;;;;;;;;;;;4.20;99.90;;;;;;5007159;28;19925;-78
2022/01/17 14:00:24;;;;;;;;;;;4.20;99.90;;;;;;5008047;28;19933;-77
2022/01/17 14:03:00;;;;;;;;;;;4.20;1.00;;;;;;5005864;28;19939;-78
2022/01/17 14:05:30;;;;;;;;;;;4.20;1.00;;;;;;5007367;28;20387;-78
2022/01/17 14:08:09;;;;;;;;;;;4.20;99.90;;;;;;5007111;28;19929;-78
2022/01/17 14:10:35;;;;;;;;;;;4.20;1.00;;;;;;5003213;28;19933;-79
2022/01/17 14:13:03;;;;;;;;;;;4.30;1.00;;;;;;4995328;28;19929;-78
2022/01/17 14:15:31;;;;;;;;;;;4.30;87.30;;;;;;4994160;28;19952;-78
2022/01/17 14:18:03;;;;;;;;;;;4.20;1.00;;;;;;4994463;28;20308;-78
2022/01/17 14:20:30;;;;;;;;;;;4.20;85.50;;;;;;4993567;28;20347;-77
2022/01/17 14:22:56;;;;;;;;;;;4.20;1.00;;;;;;4994652;28;19930;-78
2022/01/17 14:25:24;;;;;;;;;;;4.30;99.90;;;;;;4994369;28;20292;-79
2022/01/17 14:27:57;;;;;;;;;;;4.30;99.90;;;;;;4994268;28;19935;-77
2022/01/17 14:30:26;;;;;;;;;;;4.40;1.00;;;;;;4998836;28;20303;-78
2022/01/17 14:35:58;;;;;;;;;;;4.40;25.90;;;;;;5092545;27;1851814;-79
2022/01/17 14:38:26;;;;;;;;;;;4.30;42.00;;;;;;5155558;27;19958;-79
2022/01/17 14:40:52;;;;;;;;;;;4.30;1.00;;;;;;5145724;27;20305;-78
2022/01/17 14:43:21;;;;;;;;;;;4.20;1.00;;;;;;5137549;28;19962;-79
2022/01/17 14:45:49;;;;;;;;;;;4.20;99.90;;;;;;5137575;28;19934;-79
2022/01/17 14:48:16;;;;;;;;;;;4.20;1.00;;;;;;5141094;28;19923;-78
2022/01/17 14:50:42;;;;;;;;;;;4.20;1.00;;;;;;5144225;27;19924;-79
2022/01/17 14:53:14;;;;;;;;;;;4.20;1.00;;;;;;5141515;28;19924;-79
2022/01/17 15:01:22;;;;;;;;;;;4.30;1.00;;;;;;5136916;27;19926;-78
2022/01/17 15:03:52;;;;;;;;;;;4.30;1.00;;;;;;5137770;28;20362;-80
2022/01/17 15:06:19;;;;;;;;;;;4.30;99.90;;;;;;5134703;28;19930;-79
2022/01/17 15:08:47;;;;;;;;;;;4.30;99.90;;;;;;5134980;28;20018;-79
2022/01/17 15:11:16;;;;;;;;;;;4.20;38.80;;;;;;5135151;27;19931;-79
2022/01/17 15:13:42;;;;;;;;;;;4.20;62.80;;;;;;5134982;28;19931;-78
2022/01/17 15:16:09;;;;;;;;;;;4.20;7.80;;;;;;5135882;28;19951;-79